Time;durP1;ratioP1;P1;durP2;ratioP2;P2;SDS_P1;SDS_P2;PMS_P1;PMS_P2;Temp;Humidity;BMP_temperature;BMP_pressure;BME280_temperature;BME280_humidity;BME280_pressure;Samples;Min_cycle;Max_cycle;Signal;HPM_P1;HPM_P2
2021/01/17 00:06:35;;;;;;;23.1;13.3;;;;;;;-5.19;82.89551;98278.07;;;;
2021/01/17 00:16:32;;;;;;;24.5;16.2;;;;;;;-5.19;83.19043;98265.75;;;;
2021/01/17 00:26:29;;;;;;;27.8;17.2;;;;;;;-5.14;84.11035;98260.63;;;;
2021/01/17 00:36:27;;;;;;;20.3;11.3;;;;;;;-5.19;86.3252;98260.49;;;;
2021/01/17 00:46:24;;;;;;;20.7;12.9;;;;;;;-5.23;86.65234;98255.88;;;;
2021/01/17 00:56:24;;;;;;;17;12.2;;;;;;;-5.22;86.91211;98254.86;;;;
2021/01/17 01:06:19;;;;;;;23.9;14.8;;;;;;;-5.17;87.34766;98263.7;;;;
2021/01/17 01:16:17;;;;;;;15.6;12.7;;;;;;;-5.04;87.04785;98294.33;;;;
2021/01/17 01:26:12;;;;;;;16.8;10.5;;;;;;;-4.97;86.64941;98296.89;;;;
2021/01/17 01:36:10;;;;;;;16.4;9.5;;;;;;;-5.01;86.80273;98316.73;;;;
2021/01/17 01:46:07;;;;;;;8.6;5.5;;;;;;;-5.39;82.91113;98325.5;;;;
2021/01/17 01:56:04;;;;;;;8.7;4.1;;;;;;;-5.61;82.01074;98332.08;;;;
2021/01/17 02:06:01;;;;;;;8.2;4.5;;;;;;;-5.74;81.68262;98343.46;;;;
2021/01/17 02:15:58;;;;;;;15.1;6.3;;;;;;;-5.78;82.5957;98357.2;;;;
2021/01/17 02:25:55;;;;;;;6.7;4.2;;;;;;;-5.84;83.18066;98358.84;;;;
2021/01/17 02:35:52;;;;;;;8.7;5.5;;;;;;;-6;83.65625;98363.8;;;;
2021/01/17 02:45:49;;;;;;;7.9;4.5;;;;;;;-6.05;83.77539;98381.95;;;;
2021/01/17 02:55:47;;;;;;;12.1;6.5;;;;;;;-6.45;82.26758;98389.09;;;;
2021/01/17 03:05:44;;;;;;;12.7;6.1;;;;;;;-6.62;80.80762;98409.67;;;;
2021/01/17 03:25:38;;;;;;;11.4;5.9;;;;;;;-7.39;79.75293;98427.72;;;;
2021/01/17 03:35:36;;;;;;;24.9;6.3;;;;;;;-7.62;76.2959;98438.5;;;;
2021/01/17 03:45:32;;;;;;;8.7;4.7;;;;;;;-7.92;75.53809;98451.05;;;;
2021/01/17 03:55:29;;;;;;;9.1;5;;;;;;;-8.43;76.03809;98463.59;;;;
2021/01/17 04:05:26;;;;;;;7.8;3.8;;;;;;;-8.54;75.13574;98471.98;;;;
2021/01/17 04:15:23;;;;;;;8.4;4.3;;;;;;;-8.87;75.75391;98473.48;;;;
2021/01/17 04:25:20;;;;;;;7.3;3.9;;;;;;;-9.12;74.83594;98480.05;;;;
2021/01/17 04:35:17;;;;;;;7.2;3.6;;;;;;;-9.35;75.19434;98494.07;;;;
2021/01/17 04:45:16;;;;;;;7.4;5.8;;;;;;;-9.29;74.66699;98501.16;;;;
2021/01/17 04:55:10;;;;;;;9.6;3.9;;;;;;;-9.4;74.60352;98519.07;;;;
2021/01/17 05:05:07;;;;;;;7.3;3;;;;;;;-9.39;74.25977;98538.96;;;;
2021/01/17 05:15:03;;;;;;;6.1;3.6;;;;;;;-9.61;74.67285;98540.67;;;;
2021/01/17 05:25:00;;;;;;;10.3;4;;;;;;;-9.59;75.52734;98562.19;;;;
2021/01/17 05:34:57;;;;;;;6.4;4;;;;;;;-9.36;75.48145;98567.29;;;;
2021/01/17 05:44:53;;;;;;;7.5;4.7;;;;;;;-9.26;75.33789;98580.86;;;;
2021/01/17 05:54:50;;;;;;;11.4;6;;;;;;;-9.34;75.34668;98584.41;;;;
2021/01/17 06:04:47;;;;;;;8.8;4.8;;;;;;;-9.32;75.93164;98605.89;;;;
2021/01/17 06:14:44;;;;;;;9.2;5.5;;;;;;;-9.62;76.06934;98619.11;;;;
2021/01/17 06:24:41;;;;;;;10.4;4.7;;;;;;;-9.57;76.49902;98635.83;;;;
2021/01/17 06:34:37;;;;;;;13.9;8.5;;;;;;;-9.61;75.78125;98641.6;;;;
2021/01/17 06:44:34;;;;;;;9.6;6.3;;;;;;;-9.83;75.90332;98658.91;;;;
2021/01/17 06:54:31;;;;;;;11.5;6.8;;;;;;;-9.81;76.19727;98669.95;;;;
2021/01/17 07:04:33;;;;;;;15.1;6.8;;;;;;;-9.87;76.64746;98665.45;;;;
2021/01/17 07:14:25;;;;;;;17.8;9.2;;;;;;;-9.31;76.24707;98696.23;;;;
2021/01/17 07:24:21;;;;;;;15.4;8.9;;;;;;;-8.99;74.22363;98718.58;;;;
2021/01/17 07:34:20;;;;;;;17.5;8.4;;;;;;;-8.76;73.78906;98736.75;;;;
2021/01/17 07:44:21;;;;;;;10.8;5.3;;;;;;;-8.5;73.16504;98736.28;;;;
2021/01/17 07:54:12;;;;;;;13.9;6.9;;;;;;;-8.43;72.11914;98745.8;;;;
2021/01/17 08:04:10;;;;;;;11.2;7.1;;;;;;;-8.05;72.41113;98745.61;;;;
2021/01/17 08:14:06;;;;;;;13.8;7.2;;;;;;;-7.55;70.62598;98750.72;;;;
2021/01/17 08:24:03;;;;;;;17.5;8.5;;;;;;;-7.44;69.44336;98750.22;;;;
2021/01/17 08:34:00;;;;;;;14.6;7.4;;;;;;;-7;67.72559;98757.79;;;;
2021/01/17 08:43:57;;;;;;;11.9;7.8;;;;;;;-7.15;67.57031;98768.36;;;;
2021/01/17 08:53:54;;;;;;;23.9;9.5;;;;;;;-7.45;67.35938;98795.7;;;;
2021/01/17 09:03:51;;;;;;;18.4;10;;;;;;;-7.33;67.38965;98811.72;;;;
2021/01/17 09:13:48;;;;;;;14.2;9.8;;;;;;;-6.98;65.76172;98830.95;;;;
2021/01/17 09:23:45;;;;;;;13.4;7.7;;;;;;;-6.46;64.77832;98835.75;;;;
2021/01/17 09:33:42;;;;;;;19.5;10;;;;;;;-6.16;63.62793;98848.42;;;;
2021/01/17 09:43:40;;;;;;;20.8;8.8;;;;;;;-5.91;62.33594;98843.5;;;;
2021/01/17 09:53:37;;;;;;;22.2;11.1;;;;;;;-5.72;62.55859;98852.39;;;;
2021/01/17 10:03:34;;;;;;;18.3;11;;;;;;;-5.86;61.37305;98866.5;;;;
2021/01/17 10:13:31;;;;;;;94.1;52.9;;;;;;;-5.84;61.22363;98870.55;;;;
2021/01/17 10:23:29;;;;;;;27;14.6;;;;;;;-5.13;59.62305;98871.73;;;;
2021/01/17 10:33:25;;;;;;;100.2;63.5;;;;;;;-5.4;59.98828;98877.95;;;;
2021/01/17 10:43:27;;;;;;;18;12.7;;;;;;;-5.5;59.97461;98877.52;;;;
2021/01/17 10:53:20;;;;;;;19.4;11.9;;;;;;;-5.98;60.75586;98889.88;;;;
2021/01/17 11:03:29;;;;;;;18.8;10.3;;;;;;;-5.34;60.35645;98897.34;;;;
2021/01/17 11:13:18;;;;;;;19.7;10.5;;;;;;;-6.01;61.77539;98889.45;;;;
2021/01/17 11:23:12;;;;;;;25.9;14.4;;;;;;;-5.65;61.07617;98893.42;;;;
2021/01/17 11:33:09;;;;;;;19.2;13.4;;;;;;;-5.07;59.99121;98889.32;;;;
2021/01/17 11:43:07;;;;;;;19.1;12.1;;;;;;;-4.48;57.47949;98893.01;;;;
2021/01/17 11:53:04;;;;;;;24.9;14.2;;;;;;;-4.44;56.90527;98884.48;;;;
2021/01/17 12:03:01;;;;;;;18;15;;;;;;;-4.38;57.20996;98883.69;;;;
2021/01/17 12:12:59;;;;;;;25.8;14.2;;;;;;;-4.89;56.95313;98880.03;;;;
2021/01/17 12:22:56;;;;;;;26.9;13;;;;;;;-5.07;57.41113;98889.32;;;;
2021/01/17 12:32:53;;;;;;;17.5;12.2;;;;;;;-4.94;54.65918;98887.73;;;;
2021/01/17 12:42:51;;;;;;;14.6;11.2;;;;;;;-5.65;56.50195;98898.67;;;;
2021/01/17 12:52:48;;;;;;;16.2;8.8;;;;;;;-5.51;55.55762;98914.46;;;;
2021/01/17 13:02:45;;;;;;;14.5;12.5;;;;;;;-5.84;57.73242;98930.9;;;;
2021/01/17 13:12:42;;;;;;;27.1;15.7;;;;;;;-6.42;60.03906;98934.78;;;;
2021/01/17 13:22:41;;;;;;;33.6;17.7;;;;;;;-6.37;59.04297;98950.77;;;;
2021/01/17 13:32:37;;;;;;;31.4;17.3;;;;;;;-6.59;59.95898;98946.54;;;;
2021/01/17 13:42:34;;;;;;;24;14.9;;;;;;;-6.66;61.55957;98953.53;;;;
2021/01/17 13:52:31;;;;;;;19;13.3;;;;;;;-6.79;61.18262;98974.38;;;;
2021/01/17 14:02:28;;;;;;;23;11.5;;;;;;;-6.97;61.64551;98982.67;;;;
2021/01/17 14:12:25;;;;;;;14.3;9.9;;;;;;;-7;61.21582;98987.47;;;;
2021/01/17 14:22:22;;;;;;;15.3;10.8;;;;;;;-7.09;60.61621;99001.69;;;;
2021/01/17 14:32:19;;;;;;;20.2;12.7;;;;;;;-7.6;61.30273;99006.11;;;;
2021/01/17 14:42:18;;;;;;;16.8;11.4;;;;;;;-7.9;62.29004;99006.09;;;;
2021/01/17 14:52:13;;;;;;;24.4;12;;;;;;;-7.99;63.47852;99016.82;;;;
2021/01/17 15:02:10;;;;;;;27.4;15.9;;;;;;;-7.92;63.51172;99015.11;;;;
2021/01/17 15:12:07;;;;;;;25.8;16.1;;;;;;;-8.16;65.00391;99022.19;;;;
2021/01/17 15:22:04;;;;;;;31.9;14.9;;;;;;;-8.35;66.48828;99022.73;;;;
2021/01/17 15:32:01;;;;;;;20.2;12.4;;;;;;;-8.56;68.27246;99034.81;;;;
2021/01/17 15:41:58;;;;;;;30.7;13.9;;;;;;;-8.63;70.27148;99042.55;;;;
2021/01/17 15:51:55;;;;;;;32.5;15.9;;;;;;;-8.74;72.13184;99048.98;;;;
2021/01/17 16:01:52;;;;;;;27.3;16.8;;;;;;;-8.68;71.94629;99060.55;;;;
2021/01/17 16:11:49;;;;;;;34.1;15.9;;;;;;;-8.79;72.5127;99069.59;;;;
2021/01/17 16:21:45;;;;;;;21.8;13.4;;;;;;;-8.58;71.72754;99097.71;;;;
2021/01/17 16:31:42;;;;;;;24.5;11.2;;;;;;;-8.79;70.60156;99098.33;;;;
2021/01/17 16:41:39;;;;;;;18.5;10;;;;;;;-8.72;71.26074;99103.67;;;;
2021/01/17 16:51:37;;;;;;;26.2;14.9;;;;;;;-8.65;71.14258;99107.23;;;;
2021/01/17 17:01:33;;;;;;;27.8;15.1;;;;;;;-8.71;70.5918;99115.75;;;;
2021/01/17 17:11:30;;;;;;;24.1;11.7;;;;;;;-8.74;70.47852;99123.91;;;;
2021/01/17 17:21:27;;;;;;;42.9;22.9;;;;;;;-9.24;74.5332;99137.36;;;;
2021/01/17 17:31:23;;;;;;;30.8;18.3;;;;;;;-9.43;74.91016;99146.37;;;;
2021/01/17 17:41:20;;;;;;;30.4;20.2;;;;;;;-9.47;74.7627;99160.72;;;;
2021/01/17 17:51:18;;;;;;;37.2;20.4;;;;;;;-9.61;74.94141;99168.43;;;;
2021/01/17 18:01:14;;;;;;;25.1;14.7;;;;;;;-9.47;73.8584;99167.73;;;;
2021/01/17 18:11:10;;;;;;;24;16;;;;;;;-9.59;74.63281;99182.11;;;;
2021/01/17 18:21:07;;;;;;;51.5;26.2;;;;;;;-9.31;73.95313;99189.41;;;;
2021/01/17 18:31:04;;;;;;;26.6;16.8;;;;;;;-9.65;74.58008;99199.23;;;;
2021/01/17 18:41:00;;;;;;;31.4;18.3;;;;;;;-9.77;74.80664;99177.88;;;;
2021/01/17 18:50:57;;;;;;;27.3;18.4;;;;;;;-9.57;74.51855;99160.09;;;;
2021/01/17 19:00:54;;;;;;;28.6;17.9;;;;;;;-9.66;74.51367;99166.3;;;;
2021/01/17 19:10:50;;;;;;;28.5;17.4;;;;;;;-9.52;74.07617;99168.24;;;;
2021/01/17 19:20:47;;;;;;;34.3;17.6;;;;;;;-9.35;73.38477;99180.28;;;;
2021/01/17 19:30:44;;;;;;;41.7;25.1;;;;;;;-9.22;73.1377;99190.19;;;;
2021/01/17 19:40:41;;;;;;;43.6;25.3;;;;;;;-9.23;73.50391;99202.42;;;;
2021/01/17 19:50:38;;;;;;;39.1;23.3;;;;;;;-9.46;73.93457;99195.45;;;;
2021/01/17 20:00:34;;;;;;;33.4;21.3;;;;;;;-9.26;73.91797;99189.7;;;;
2021/01/17 20:10:31;;;;;;;33.6;23.8;;;;;;;-9.06;73.17578;99212.84;;;;
2021/01/17 20:20:28;;;;;;;55.4;37;;;;;;;-9.08;72.91309;99209.56;;;;
2021/01/17 20:30:25;;;;;;;34;19;;;;;;;-9.11;72.91895;99218.55;;;;
2021/01/17 20:40:21;;;;;;;33.4;21.6;;;;;;;-9.12;73.91992;99216.09;;;;
2021/01/17 20:50:18;;;;;;;36.8;19.8;;;;;;;-9.15;73.24512;99208.6;;;;
2021/01/17 21:00:15;;;;;;;32.9;19.6;;;;;;;-9.16;73.92383;99231.28;;;;
2021/01/17 21:10:12;;;;;;;66.1;33.1;;;;;;;-8.87;73.5;99238.56;;;;
2021/01/17 21:20:09;;;;;;;51;25.1;;;;;;;-9.01;73.07617;99249.69;;;;
2021/01/17 21:30:05;;;;;;;32.1;21.2;;;;;;;-9.09;73.41992;99253.13;;;;
2021/01/17 21:40:02;;;;;;;38.6;20.3;;;;;;;-9.2;73.57324;99236.02;;;;
2021/01/17 21:49:59;;;;;;;35.2;21.5;;;;;;;-9.2;74.1748;99248.27;;;;
2021/01/17 21:59:56;;;;;;;39;24.5;;;;;;;-9.32;74.32617;99273.88;;;;
2021/01/17 22:09:52;;;;;;;38.6;25.3;;;;;;;-9.37;74.27441;99268.33;;;;
2021/01/17 22:19:49;;;;;;;46.2;28.7;;;;;;;-9.39;73.73242;99272.09;;;;
2021/01/17 22:29:46;;;;;;;57.1;31.6;;;;;;;-9.56;74.47754;99255.63;;;;
2021/01/17 22:39:42;;;;;;;63.5;30.6;;;;;;;-9.84;75.91113;99251.7;;;;
2021/01/17 22:49:40;;;;;;;50.8;28.4;;;;;;;-9.94;75.62598;99251.86;;;;
2021/01/17 22:59:36;;;;;;;58.9;32.2;;;;;;;-9.96;75.63184;99263.43;;;;
2021/01/17 23:09:33;;;;;;;58.9;31.7;;;;;;;-10.08;75.97461;99267.3;;;;
2021/01/17 23:19:29;;;;;;;71;36.2;;;;;;;-10.16;76.06836;99268.13;;;;
2021/01/17 23:29:26;;;;;;;71.1;31.1;;;;;;;-10.28;76.45605;99259.8;;;;
2021/01/17 23:39:22;;;;;;;27.4;15.2;;;;;;;-10.05;75.7959;99251.34;;;;
2021/01/17 23:49:19;;;;;;;34;18;;;;;;;-10.16;75.25195;99252.48;;;;
2021/01/17 23:59:19;;;;;;;58.5;24.4;;;;;;;-10.23;75.75488;99235.86;;;;
